sensor_id;sensor_type;location;lat;lon;timestamp;P1;durP1;ratioP1;P2;durP2;ratioP2
1346;SDS011;667;48.796;9.480;2023-06-22T00:01:04;11.20;;;10.20;;
1346;SDS011;667;48.796;9.480;2023-06-22T00:03:30;10.40;;;9.50;;
1346;SDS011;667;48.796;9.480;2023-06-22T00:05:55;10.93;;;9.97;;
1346;SDS011;667;48.796;9.480;2023-06-22T00:08:21;11.20;;;10.10;;
1346;SDS011;667;48.796;9.480;2023-06-22T00:10:47;11.60;;;10.43;;
1346;SDS011;667;48.796;9.480;2023-06-22T00:13:13;11.00;;;10.00;;
1346;SDS011;667;48.796;9.480;2023-06-22T00:15:40;12.00;;;10.90;;
1346;SDS011;667;48.796;9.480;2023-06-22T00:18:06;12.40;;;9.70;;
1346;SDS011;667;48.796;9.480;2023-06-22T00:20:33;10.53;;;9.60;;
1346;SDS011;667;48.796;9.480;2023-06-22T00:23:01;10.70;;;9.67;;
1346;SDS011;667;48.796;9.480;2023-06-22T00:25:33;10.40;;;9.50;;
1346;SDS011;667;48.796;9.480;2023-06-22T00:28:02;11.50;;;10.33;;
1346;SDS011;667;48.796;9.480;2023-06-22T00:30:29;10.83;;;9.73;;
1346;SDS011;667;48.796;9.480;2023-06-22T00:32:55;11.00;;;9.90;;
1346;SDS011;667;48.796;9.480;2023-06-22T00:35:20;10.47;;;9.47;;
1346;SDS011;667;48.796;9.480;2023-06-22T00:37:46;11.60;;;10.50;;
1346;SDS011;667;48.796;9.480;2023-06-22T00:40:12;10.93;;;10.03;;
1346;SDS011;667;48.796;9.480;2023-06-22T00:42:39;10.50;;;9.60;;
1346;SDS011;667;48.796;9.480;2023-06-22T00:45:05;10.53;;;9.50;;
1346;SDS011;667;48.796;9.480;2023-06-22T00:47:31;10.43;;;9.53;;
1346;SDS011;667;48.796;9.480;2023-06-22T00:49:58;10.73;;;9.40;;
1346;SDS011;667;48.796;9.480;2023-06-22T00:52:25;13.93;;;9.30;;
1346;SDS011;667;48.796;9.480;2023-06-22T00:54:54;10.07;;;9.07;;
1346;SDS011;667;48.796;9.480;2023-06-22T00:57:21;10.80;;;9.70;;
1346;SDS011;667;48.796;9.480;2023-06-22T00:59:50;9.70;;;8.83;;
1346;SDS011;667;48.796;9.480;2023-06-22T01:02:16;10.87;;;9.87;;
1346;SDS011;667;48.796;9.480;2023-06-22T01:04:41;10.50;;;9.57;;
1346;SDS011;667;48.796;9.480;2023-06-22T01:12:35;11.30;;;9.47;;
1346;SDS011;667;48.796;9.480;2023-06-22T01:15:10;11.63;;;10.40;;
1346;SDS011;667;48.796;9.480;2023-06-22T01:17:44;10.47;;;9.47;;
1346;SDS011;667;48.796;9.480;2023-06-22T01:20:12;12.37;;;9.80;;
1346;SDS011;667;48.796;9.480;2023-06-22T01:23:02;10.73;;;9.77;;
1346;SDS011;667;48.796;9.480;2023-06-22T01:25:41;10.77;;;9.73;;
1346;SDS011;667;48.796;9.480;2023-06-22T01:31:02;10.40;;;9.40;;
1346;SDS011;667;48.796;9.480;2023-06-22T01:33:34;10.63;;;9.77;;
1346;SDS011;667;48.796;9.480;2023-06-22T01:36:03;11.03;;;10.10;;
1346;SDS011;667;48.796;9.480;2023-06-22T01:38:30;10.90;;;9.83;;
1346;SDS011;667;48.796;9.480;2023-06-22T01:40:57;11.20;;;10.00;;
1346;SDS011;667;48.796;9.480;2023-06-22T01:43:24;10.83;;;9.27;;
1346;SDS011;667;48.796;9.480;2023-06-22T01:45:51;10.03;;;9.13;;
1346;SDS011;667;48.796;9.480;2023-06-22T01:48:18;10.30;;;9.30;;
1346;SDS011;667;48.796;9.480;2023-06-22T01:50:45;10.93;;;8.80;;
1346;SDS011;667;48.796;9.480;2023-06-22T01:53:11;10.93;;;9.57;;
1346;SDS011;667;48.796;9.480;2023-06-22T01:55:36;13.23;;;10.20;;
1346;SDS011;667;48.796;9.480;2023-06-22T01:58:02;9.93;;;9.10;;
1346;SDS011;667;48.796;9.480;2023-06-22T02:00:28;10.97;;;9.83;;
1346;SDS011;667;48.796;9.480;2023-06-22T02:02:59;10.97;;;10.07;;
1346;SDS011;667;48.796;9.480;2023-06-22T02:05:29;10.47;;;9.43;;
1346;SDS011;667;48.796;9.480;2023-06-22T02:08:09;10.30;;;9.40;;
1346;SDS011;667;48.796;9.480;2023-06-22T02:10:47;10.33;;;9.37;;
1346;SDS011;667;48.796;9.480;2023-06-22T02:13:14;12.00;;;10.20;;
1346;SDS011;667;48.796;9.480;2023-06-22T02:15:40;10.23;;;9.30;;
1346;SDS011;667;48.796;9.480;2023-06-22T02:18:07;11.03;;;10.03;;
1346;SDS011;667;48.796;9.480;2023-06-22T02:20:32;10.10;;;9.17;;
1346;SDS011;667;48.796;9.480;2023-06-22T02:23:02;13.67;;;9.07;;
1346;SDS011;667;48.796;9.480;2023-06-22T02:25:27;11.27;;;9.83;;
1346;SDS011;667;48.796;9.480;2023-06-22T02:27:53;9.80;;;8.80;;
1346;SDS011;667;48.796;9.480;2023-06-22T02:30:18;11.23;;;9.30;;
1346;SDS011;667;48.796;9.480;2023-06-22T02:32:44;11.53;;;9.50;;
1346;SDS011;667;48.796;9.480;2023-06-22T02:35:10;8.60;;;7.80;;
1346;SDS011;667;48.796;9.480;2023-06-22T02:37:38;9.60;;;8.60;;
1346;SDS011;667;48.796;9.480;2023-06-22T02:40:06;10.60;;;9.60;;
1346;SDS011;667;48.796;9.480;2023-06-22T02:42:34;9.77;;;8.90;;
1346;SDS011;667;48.796;9.480;2023-06-22T02:44:59;11.00;;;10.10;;
1346;SDS011;667;48.796;9.480;2023-06-22T02:47:25;10.10;;;9.10;;
1346;SDS011;667;48.796;9.480;2023-06-22T02:49:51;10.83;;;9.30;;
1346;SDS011;667;48.796;9.480;2023-06-22T02:52:17;10.80;;;9.80;;
1346;SDS011;667;48.796;9.480;2023-06-22T02:54:42;11.30;;;8.57;;
1346;SDS011;667;48.796;9.480;2023-06-22T02:57:11;10.83;;;9.40;;
1346;SDS011;667;48.796;9.480;2023-06-22T02:59:38;9.60;;;8.80;;
1346;SDS011;667;48.796;9.480;2023-06-22T03:02:06;10.13;;;9.13;;
1346;SDS011;667;48.796;9.480;2023-06-22T03:04:32;10.23;;;9.23;;
1346;SDS011;667;48.796;9.480;2023-06-22T03:06:58;9.70;;;8.83;;
1346;SDS011;667;48.796;9.480;2023-06-22T03:09:26;9.40;;;8.60;;
1346;SDS011;667;48.796;9.480;2023-06-22T03:11:52;10.37;;;9.47;;
1346;SDS011;667;48.796;9.480;2023-06-22T03:14:21;9.77;;;8.97;;
1346;SDS011;667;48.796;9.480;2023-06-22T03:16:47;10.83;;;9.73;;
1346;SDS011;667;48.796;9.480;2023-06-22T03:19:12;9.93;;;9.03;;
1346;SDS011;667;48.796;9.480;2023-06-22T03:21:39;9.80;;;9.00;;
1346;SDS011;667;48.796;9.480;2023-06-22T03:24:08;10.50;;;9.50;;
1346;SDS011;667;48.796;9.480;2023-06-22T03:26:34;10.83;;;9.90;;
1346;SDS011;667;48.796;9.480;2023-06-22T03:29:00;10.40;;;9.50;;
1346;SDS011;667;48.796;9.480;2023-06-22T03:31:26;10.03;;;9.03;;
1346;SDS011;667;48.796;9.480;2023-06-22T03:33:51;11.13;;;9.30;;
1346;SDS011;667;48.796;9.480;2023-06-22T03:36:17;10.07;;;9.23;;
1346;SDS011;667;48.796;9.480;2023-06-22T03:38:46;9.13;;;8.00;;
1346;SDS011;667;48.796;9.480;2023-06-22T03:41:12;11.63;;;10.43;;
1346;SDS011;667;48.796;9.480;2023-06-22T03:43:38;11.60;;;10.50;;
1346;SDS011;667;48.796;9.480;2023-06-22T03:46:04;10.70;;;9.37;;
1346;SDS011;667;48.796;9.480;2023-06-22T03:48:30;12.10;;;9.33;;
1346;SDS011;667;48.796;9.480;2023-06-22T03:50:55;10.67;;;9.70;;
1346;SDS011;667;48.796;9.480;2023-06-22T03:53:21;10.37;;;9.47;;
1346;SDS011;667;48.796;9.480;2023-06-22T03:55:52;10.40;;;9.50;;
1346;SDS011;667;48.796;9.480;2023-06-22T03:58:18;9.90;;;8.70;;
1346;SDS011;667;48.796;9.480;2023-06-22T04:00:48;11.60;;;10.50;;
1346;SDS011;667;48.796;9.480;2023-06-22T04:03:16;10.43;;;9.37;;
1346;SDS011;667;48.796;9.480;2023-06-22T04:05:43;9.37;;;8.57;;
1346;SDS011;667;48.796;9.480;2023-06-22T04:08:09;10.50;;;9.50;;
1346;SDS011;667;48.796;9.480;2023-06-22T04:10:35;9.90;;;9.00;;
1346;SDS011;667;48.796;9.480;2023-06-22T04:13:01;12.60;;;11.03;;
1346;SDS011;667;48.796;9.480;2023-06-22T04:15:27;10.40;;;9.40;;
1346;SDS011;667;48.796;9.480;2023-06-22T04:17:54;11.07;;;10.07;;
1346;SDS011;667;48.796;9.480;2023-06-22T04:20:20;12.40;;;11.30;;
1346;SDS011;667;48.796;9.480;2023-06-22T04:22:45;9.97;;;9.07;;
1346;SDS011;667;48.796;9.480;2023-06-22T04:25:11;11.07;;;9.10;;
1346;SDS011;667;48.796;9.480;2023-06-22T04:27:37;10.93;;;9.97;;
1346;SDS011;667;48.796;9.480;2023-06-22T04:30:05;11.50;;;10.23;;
1346;SDS011;667;48.796;9.480;2023-06-22T04:32:32;11.10;;;10.20;;
1346;SDS011;667;48.796;9.480;2023-06-22T04:34:58;10.77;;;9.77;;
1346;SDS011;667;48.796;9.480;2023-06-22T04:37:25;11.83;;;9.87;;
1346;SDS011;667;48.796;9.480;2023-06-22T04:39:51;10.80;;;9.83;;
1346;SDS011;667;48.796;9.480;2023-06-22T04:42:17;12.50;;;10.60;;
1346;SDS011;667;48.796;9.480;2023-06-22T04:44:42;12.57;;;11.37;;
1346;SDS011;667;48.796;9.480;2023-06-22T04:47:08;12.60;;;11.50;;
1346;SDS011;667;48.796;9.480;2023-06-22T04:49:34;14.47;;;13.07;;
1346;SDS011;667;48.796;9.480;2023-06-22T04:54:32;12.90;;;11.70;;
1346;SDS011;667;48.796;9.480;2023-06-22T04:56:59;13.30;;;12.20;;
1346;SDS011;667;48.796;9.480;2023-06-22T04:59:26;14.63;;;12.07;;
1346;SDS011;667;48.796;9.480;2023-06-22T05:01:54;12.87;;;11.67;;
1346;SDS011;667;48.796;9.480;2023-06-22T05:04:25;11.37;;;10.23;;
1346;SDS011;667;48.796;9.480;2023-06-22T05:06:52;12.47;;;11.20;;
1346;SDS011;667;48.796;9.480;2023-06-22T05:09:19;12.90;;;11.40;;
1346;SDS011;667;48.796;9.480;2023-06-22T05:11:45;12.60;;;11.47;;
1346;SDS011;667;48.796;9.480;2023-06-22T05:14:10;11.93;;;10.60;;
1346;SDS011;667;48.796;9.480;2023-06-22T05:16:36;12.30;;;11.30;;
1346;SDS011;667;48.796;9.480;2023-06-22T05:19:02;12.70;;;11.50;;
1346;SDS011;667;48.796;9.480;2023-06-22T05:21:28;12.90;;;11.80;;
1346;SDS011;667;48.796;9.480;2023-06-22T05:23:55;12.63;;;11.43;;
1346;SDS011;667;48.796;9.480;2023-06-22T05:26:25;12.53;;;11.07;;
1346;SDS011;667;48.796;9.480;2023-06-22T05:28:51;13.80;;;11.57;;
1346;SDS011;667;48.796;9.480;2023-06-22T05:31:17;12.53;;;11.37;;
1346;SDS011;667;48.796;9.480;2023-06-22T05:33:44;12.37;;;11.13;;
1346;SDS011;667;48.796;9.480;2023-06-22T05:36:10;12.40;;;11.17;;
1346;SDS011;667;48.796;9.480;2023-06-22T05:38:37;11.07;;;10.07;;
1346;SDS011;667;48.796;9.480;2023-06-22T05:41:03;13.10;;;10.77;;
1346;SDS011;667;48.796;9.480;2023-06-22T05:43:29;11.70;;;10.70;;
1346;SDS011;667;48.796;9.480;2023-06-22T05:45:55;11.47;;;10.47;;
1346;SDS011;667;48.796;9.480;2023-06-22T05:48:21;12.30;;;11.00;;
1346;SDS011;667;48.796;9.480;2023-06-22T05:50:46;11.90;;;9.27;;
1346;SDS011;667;48.796;9.480;2023-06-22T05:53:12;11.00;;;10.00;;
1346;SDS011;667;48.796;9.480;2023-06-22T05:55:38;10.67;;;9.67;;
1346;SDS011;667;48.796;9.480;2023-06-22T05:58:03;10.13;;;8.87;;
1346;SDS011;667;48.796;9.480;2023-06-22T06:00:29;9.97;;;9.07;;
1346;SDS011;667;48.796;9.480;2023-06-22T06:02:55;9.47;;;8.67;;
1346;SDS011;667;48.796;9.480;2023-06-22T06:05:21;9.30;;;8.30;;
1346;SDS011;667;48.796;9.480;2023-06-22T06:07:48;9.37;;;8.57;;
1346;SDS011;667;48.796;9.480;2023-06-22T06:10:14;9.77;;;8.97;;
1346;SDS011;667;48.796;9.480;2023-06-22T06:12:39;10.30;;;9.40;;
1346;SDS011;667;48.796;9.480;2023-06-22T06:15:05;11.73;;;9.37;;
1346;SDS011;667;48.796;9.480;2023-06-22T06:17:31;9.40;;;8.50;;
1346;SDS011;667;48.796;9.480;2023-06-22T06:19:58;9.70;;;8.83;;
1346;SDS011;667;48.796;9.480;2023-06-22T06:22:24;10.63;;;9.70;;
1346;SDS011;667;48.796;9.480;2023-06-22T06:24:50;9.27;;;8.37;;
1346;SDS011;667;48.796;9.480;2023-06-22T06:27:15;9.47;;;8.50;;
1346;SDS011;667;48.796;9.480;2023-06-22T06:29:43;9.53;;;8.60;;
1346;SDS011;667;48.796;9.480;2023-06-22T06:32:10;8.23;;;7.47;;
1346;SDS011;667;48.796;9.480;2023-06-22T06:34:36;10.27;;;9.17;;
1346;SDS011;667;48.796;9.480;2023-06-22T06:37:02;9.00;;;8.20;;
1346;SDS011;667;48.796;9.480;2023-06-22T06:39:28;9.17;;;7.50;;
1346;SDS011;667;48.796;9.480;2023-06-22T06:41:53;8.60;;;7.90;;
1346;SDS011;667;48.796;9.480;2023-06-22T06:44:19;8.93;;;8.03;;
1346;SDS011;667;48.796;9.480;2023-06-22T06:46:44;9.03;;;8.13;;
1346;SDS011;667;48.796;9.480;2023-06-22T06:49:10;9.60;;;7.67;;
1346;SDS011;667;48.796;9.480;2023-06-22T06:51:35;9.40;;;8.50;;
1346;SDS011;667;48.796;9.480;2023-06-22T06:54:01;8.87;;;8.00;;
1346;SDS011;667;48.796;9.480;2023-06-22T06:56:28;8.10;;;6.70;;
1346;SDS011;667;48.796;9.480;2023-06-22T06:58:54;7.53;;;6.63;;
1346;SDS011;667;48.796;9.480;2023-06-22T07:01:20;8.67;;;7.77;;
1346;SDS011;667;48.796;9.480;2023-06-22T07:03:46;8.23;;;7.53;;
1346;SDS011;667;48.796;9.480;2023-06-22T07:06:12;7.20;;;6.60;;
1346;SDS011;667;48.796;9.480;2023-06-22T07:08:38;9.60;;;7.80;;
1346;SDS011;667;48.796;9.480;2023-06-22T07:11:04;9.57;;;6.90;;
1346;SDS011;667;48.796;9.480;2023-06-22T07:13:30;7.80;;;7.10;;
1346;SDS011;667;48.796;9.480;2023-06-22T07:15:56;7.57;;;6.90;;
1346;SDS011;667;48.796;9.480;2023-06-22T07:18:21;7.67;;;6.97;;
1346;SDS011;667;48.796;9.480;2023-06-22T07:20:47;8.50;;;7.63;;
1346;SDS011;667;48.796;9.480;2023-06-22T07:23:12;7.80;;;6.27;;
1346;SDS011;667;48.796;9.480;2023-06-22T07:25:38;9.80;;;6.70;;
1346;SDS011;667;48.796;9.480;2023-06-22T07:28:04;7.13;;;6.33;;
1346;SDS011;667;48.796;9.480;2023-06-22T07:30:31;6.40;;;5.90;;
1346;SDS011;667;48.796;9.480;2023-06-22T07:32:58;8.70;;;6.60;;
1346;SDS011;667;48.796;9.480;2023-06-22T07:35:28;7.43;;;6.80;;
1346;SDS011;667;48.796;9.480;2023-06-22T07:37:54;7.47;;;6.70;;
1346;SDS011;667;48.796;9.480;2023-06-22T07:40:19;9.47;;;6.50;;
1346;SDS011;667;48.796;9.480;2023-06-22T07:42:45;7.10;;;6.40;;
1346;SDS011;667;48.796;9.480;2023-06-22T07:45:13;7.93;;;6.77;;
1346;SDS011;667;48.796;9.480;2023-06-22T07:47:39;11.30;;;6.50;;
1346;SDS011;667;48.796;9.480;2023-06-22T07:50:05;7.23;;;6.53;;
1346;SDS011;667;48.796;9.480;2023-06-22T07:52:31;8.23;;;6.30;;
1346;SDS011;667;48.796;9.480;2023-06-22T07:54:57;6.77;;;6.03;;
1346;SDS011;667;48.796;9.480;2023-06-22T07:57:23;7.03;;;5.90;;
1346;SDS011;667;48.796;9.480;2023-06-22T07:59:56;14.80;;;6.50;;
1346;SDS011;667;48.796;9.480;2023-06-22T08:02:22;7.67;;;6.93;;
1346;SDS011;667;48.796;9.480;2023-06-22T08:04:48;6.73;;;6.13;;
1346;SDS011;667;48.796;9.480;2023-06-22T08:07:13;6.80;;;6.20;;
1346;SDS011;667;48.796;9.480;2023-06-22T08:09:39;6.93;;;5.70;;
1346;SDS011;667;48.796;9.480;2023-06-22T08:12:12;8.67;;;5.47;;
1346;SDS011;667;48.796;9.480;2023-06-22T08:14:38;9.43;;;6.20;;
1346;SDS011;667;48.796;9.480;2023-06-22T08:17:04;13.40;;;6.77;;
1346;SDS011;667;48.796;9.480;2023-06-22T08:19:30;6.53;;;5.80;;
1346;SDS011;667;48.796;9.480;2023-06-22T08:21:56;7.10;;;6.33;;
1346;SDS011;667;48.796;9.480;2023-06-22T08:24:22;6.77;;;6.07;;
1346;SDS011;667;48.796;9.480;2023-06-22T08:26:51;9.40;;;6.13;;
1346;SDS011;667;48.796;9.480;2023-06-22T08:29:17;5.90;;;5.23;;
1346;SDS011;667;48.796;9.480;2023-06-22T08:31:42;6.60;;;5.57;;
1346;SDS011;667;48.796;9.480;2023-06-22T08:34:08;8.63;;;6.10;;
1346;SDS011;667;48.796;9.480;2023-06-22T08:36:33;6.30;;;5.70;;
1346;SDS011;667;48.796;9.480;2023-06-22T08:39:02;7.60;;;6.23;;
1346;SDS011;667;48.796;9.480;2023-06-22T08:41:28;7.53;;;6.17;;
1346;SDS011;667;48.796;9.480;2023-06-22T08:43:54;10.03;;;5.57;;
1346;SDS011;667;48.796;9.480;2023-06-22T08:46:20;8.67;;;6.13;;
1346;SDS011;667;48.796;9.480;2023-06-22T08:48:49;5.97;;;5.37;;
1346;SDS011;667;48.796;9.480;2023-06-22T08:51:15;7.30;;;5.50;;
1346;SDS011;667;48.796;9.480;2023-06-22T08:53:42;6.63;;;6.00;;
1346;SDS011;667;48.796;9.480;2023-06-22T08:56:08;7.73;;;5.93;;
1346;SDS011;667;48.796;9.480;2023-06-22T08:58:33;6.90;;;6.03;;
1346;SDS011;667;48.796;9.480;2023-06-22T09:00:59;7.00;;;5.33;;
1346;SDS011;667;48.796;9.480;2023-06-22T09:03:26;6.53;;;5.50;;
1346;SDS011;667;48.796;9.480;2023-06-22T09:05:52;7.60;;;5.87;;
1346;SDS011;667;48.796;9.480;2023-06-22T09:08:17;9.63;;;5.70;;
1346;SDS011;667;48.796;9.480;2023-06-22T09:10:43;13.43;;;6.50;;
1346;SDS011;667;48.796;9.480;2023-06-22T09:13:08;8.23;;;6.20;;
1346;SDS011;667;48.796;9.480;2023-06-22T09:15:34;7.80;;;6.53;;
1346;SDS011;667;48.796;9.480;2023-06-22T09:17:59;8.70;;;6.67;;
1346;SDS011;667;48.796;9.480;2023-06-22T09:20:25;8.27;;;7.37;;
1346;SDS011;667;48.796;9.480;2023-06-22T09:22:51;8.10;;;6.17;;
1346;SDS011;667;48.796;9.480;2023-06-22T09:25:16;8.37;;;6.10;;
1346;SDS011;667;48.796;9.480;2023-06-22T09:27:45;8.60;;;6.20;;
1346;SDS011;667;48.796;9.480;2023-06-22T09:30:11;8.67;;;6.20;;
1346;SDS011;667;48.796;9.480;2023-06-22T09:32:37;9.40;;;6.50;;
1346;SDS011;667;48.796;9.480;2023-06-22T09:35:04;8.13;;;6.27;;
1346;SDS011;667;48.796;9.480;2023-06-22T09:37:31;8.47;;;6.93;;
1346;SDS011;667;48.796;9.480;2023-06-22T09:39:57;11.13;;;6.70;;
1346;SDS011;667;48.796;9.480;2023-06-22T09:42:22;8.80;;;6.73;;
1346;SDS011;667;48.796;9.480;2023-06-22T09:44:48;11.33;;;6.77;;
1346;SDS011;667;48.796;9.480;2023-06-22T09:47:13;8.50;;;6.80;;
1346;SDS011;667;48.796;9.480;2023-06-22T09:49:39;10.33;;;7.00;;
1346;SDS011;667;48.796;9.480;2023-06-22T09:52:05;9.43;;;6.33;;
1346;SDS011;667;48.796;9.480;2023-06-22T09:54:31;9.47;;;7.37;;
1346;SDS011;667;48.796;9.480;2023-06-22T09:56:56;8.80;;;7.20;;
1346;SDS011;667;48.796;9.480;2023-06-22T09:59:22;8.47;;;6.60;;
1346;SDS011;667;48.796;9.480;2023-06-22T10:01:47;8.63;;;7.50;;
1346;SDS011;667;48.796;9.480;2023-06-22T10:04:13;8.53;;;6.90;;
1346;SDS011;667;48.796;9.480;2023-06-22T10:06:38;13.33;;;7.50;;
1346;SDS011;667;48.796;9.480;2023-06-22T10:09:05;9.57;;;8.07;;
1346;SDS011;667;48.796;9.480;2023-06-22T10:11:32;10.30;;;7.27;;
1346;SDS011;667;48.796;9.480;2023-06-22T10:14:00;7.63;;;6.67;;
1346;SDS011;667;48.796;9.480;2023-06-22T10:16:30;7.67;;;6.37;;
1346;SDS011;667;48.796;9.480;2023-06-22T10:18:56;10.43;;;7.00;;
1346;SDS011;667;48.796;9.480;2023-06-22T10:21:22;8.37;;;6.50;;
1346;SDS011;667;48.796;9.480;2023-06-22T10:23:47;11.93;;;6.63;;
1346;SDS011;667;48.796;9.480;2023-06-22T10:26:13;14.63;;;7.17;;
1346;SDS011;667;48.796;9.480;2023-06-22T10:28:38;7.97;;;6.80;;
1346;SDS011;667;48.796;9.480;2023-06-22T10:31:04;8.13;;;6.63;;
1346;SDS011;667;48.796;9.480;2023-06-22T10:33:29;10.80;;;7.07;;
1346;SDS011;667;48.796;9.480;2023-06-22T10:35:55;8.73;;;7.60;;
1346;SDS011;667;48.796;9.480;2023-06-22T10:38:21;10.30;;;7.23;;
1346;SDS011;667;48.796;9.480;2023-06-22T10:40:46;7.73;;;6.97;;
1346;SDS011;667;48.796;9.480;2023-06-22T10:43:12;8.93;;;7.40;;
1346;SDS011;667;48.796;9.480;2023-06-22T10:45:37;10.13;;;7.50;;
1346;SDS011;667;48.796;9.480;2023-06-22T10:48:03;11.10;;;7.80;;
1346;SDS011;667;48.796;9.480;2023-06-22T10:50:29;9.40;;;7.43;;
1346;SDS011;667;48.796;9.480;2023-06-22T10:52:54;13.17;;;7.60;;
1346;SDS011;667;48.796;9.480;2023-06-22T10:55:20;10.60;;;7.73;;
1346;SDS011;667;48.796;9.480;2023-06-22T10:57:46;10.60;;;7.50;;
1346;SDS011;667;48.796;9.480;2023-06-22T11:00:12;8.40;;;7.60;;
1346;SDS011;667;48.796;9.480;2023-06-22T11:02:39;7.67;;;6.73;;
1346;SDS011;667;48.796;9.480;2023-06-22T11:05:05;11.13;;;7.20;;
1346;SDS011;667;48.796;9.480;2023-06-22T11:07:31;9.60;;;7.73;;
1346;SDS011;667;48.796;9.480;2023-06-22T11:09:57;11.93;;;7.80;;
1346;SDS011;667;48.796;9.480;2023-06-22T11:12:23;11.30;;;8.03;;
1346;SDS011;667;48.796;9.480;2023-06-22T11:14:49;8.47;;;7.10;;
1346;SDS011;667;48.796;9.480;2023-06-22T11:17:16;8.93;;;7.33;;
1346;SDS011;667;48.796;9.480;2023-06-22T11:19:42;10.93;;;7.60;;
1346;SDS011;667;48.796;9.480;2023-06-22T11:22:08;8.30;;;7.10;;
1346;SDS011;667;48.796;9.480;2023-06-22T11:24:34;10.37;;;7.27;;
1346;SDS011;667;48.796;9.480;2023-06-22T11:26:59;9.03;;;7.83;;
1346;SDS011;667;48.796;9.480;2023-06-22T11:29:25;13.00;;;8.77;;
1346;SDS011;667;48.796;9.480;2023-06-22T11:31:50;11.00;;;7.60;;
1346;SDS011;667;48.796;9.480;2023-06-22T11:34:16;11.47;;;7.43;;
1346;SDS011;667;48.796;9.480;2023-06-22T11:36:42;11.30;;;7.20;;
1346;SDS011;667;48.796;9.480;2023-06-22T11:39:09;9.63;;;7.50;;
1346;SDS011;667;48.796;9.480;2023-06-22T11:41:34;9.20;;;8.03;;
1346;SDS011;667;48.796;9.480;2023-06-22T11:44:00;9.23;;;7.50;;
1346;SDS011;667;48.796;9.480;2023-06-22T11:46:26;9.10;;;8.30;;
1346;SDS011;667;48.796;9.480;2023-06-22T11:48:51;14.63;;;8.00;;
1346;SDS011;667;48.796;9.480;2023-06-22T11:51:17;11.20;;;7.93;;
1346;SDS011;667;48.796;9.480;2023-06-22T11:53:42;13.57;;;8.27;;
1346;SDS011;667;48.796;9.480;2023-06-22T11:56:08;12.03;;;8.77;;
1346;SDS011;667;48.796;9.480;2023-06-22T11:58:33;13.80;;;8.30;;
1346;SDS011;667;48.796;9.480;2023-06-22T12:00:59;9.60;;;7.40;;
1346;SDS011;667;48.796;9.480;2023-06-22T12:03:24;9.80;;;8.20;;
1346;SDS011;667;48.796;9.480;2023-06-22T12:05:50;12.63;;;7.20;;
1346;SDS011;667;48.796;9.480;2023-06-22T12:08:17;8.83;;;8.00;;
1346;SDS011;667;48.796;9.480;2023-06-22T12:10:43;9.17;;;7.90;;
1346;SDS011;667;48.796;9.480;2023-06-22T12:13:09;9.23;;;7.73;;
1346;SDS011;667;48.796;9.480;2023-06-22T12:15:34;17.40;;;9.07;;
1346;SDS011;667;48.796;9.480;2023-06-22T12:18:00;11.67;;;8.20;;
1346;SDS011;667;48.796;9.480;2023-06-22T12:20:26;10.63;;;8.07;;
1346;SDS011;667;48.796;9.480;2023-06-22T12:22:51;10.67;;;8.10;;
1346;SDS011;667;48.796;9.480;2023-06-22T12:25:19;9.57;;;7.90;;
1346;SDS011;667;48.796;9.480;2023-06-22T12:27:44;9.67;;;8.67;;
1346;SDS011;667;48.796;9.480;2023-06-22T12:30:10;10.20;;;8.30;;
1346;SDS011;667;48.796;9.480;2023-06-22T12:32:35;11.67;;;8.37;;
1346;SDS011;667;48.796;9.480;2023-06-22T12:35:01;10.37;;;8.20;;
1346;SDS011;667;48.796;9.480;2023-06-22T12:37:26;13.87;;;8.20;;
1346;SDS011;667;48.796;9.480;2023-06-22T12:39:54;10.77;;;8.00;;
1346;SDS011;667;48.796;9.480;2023-06-22T12:42:20;15.60;;;8.97;;
1346;SDS011;667;48.796;9.480;2023-06-22T12:44:46;11.53;;;7.97;;
1346;SDS011;667;48.796;9.480;2023-06-22T12:47:11;15.90;;;8.33;;
1346;SDS011;667;48.796;9.480;2023-06-22T12:49:38;12.60;;;8.83;;
1346;SDS011;667;48.796;9.480;2023-06-22T12:52:08;10.93;;;8.50;;
1346;SDS011;667;48.796;9.480;2023-06-22T12:54:34;11.27;;;7.93;;
1346;SDS011;667;48.796;9.480;2023-06-22T12:56:59;9.57;;;7.93;;
1346;SDS011;667;48.796;9.480;2023-06-22T12:59:26;8.40;;;7.60;;
1346;SDS011;667;48.796;9.480;2023-06-22T13:01:51;9.77;;;8.47;;
1346;SDS011;667;48.796;9.480;2023-06-22T13:04:17;11.33;;;8.10;;
1346;SDS011;667;48.796;9.480;2023-06-22T13:06:44;11.53;;;8.10;;
1346;SDS011;667;48.796;9.480;2023-06-22T13:09:13;9.60;;;8.00;;
1346;SDS011;667;48.796;9.480;2023-06-22T13:11:38;10.20;;;8.30;;
1346;SDS011;667;48.796;9.480;2023-06-22T13:14:04;13.83;;;8.33;;
1346;SDS011;667;48.796;9.480;2023-06-22T13:16:30;12.30;;;7.70;;
1346;SDS011;667;48.796;9.480;2023-06-22T13:18:55;9.47;;;8.20;;
1346;SDS011;667;48.796;9.480;2023-06-22T13:21:21;11.90;;;8.10;;
1346;SDS011;667;48.796;9.480;2023-06-22T13:23:46;13.47;;;8.53;;
1346;SDS011;667;48.796;9.480;2023-06-22T13:26:12;11.23;;;8.07;;
1346;SDS011;667;48.796;9.480;2023-06-22T13:28:38;8.87;;;7.67;;
1346;SDS011;667;48.796;9.480;2023-06-22T13:31:03;9.23;;;8.33;;
1346;SDS011;667;48.796;9.480;2023-06-22T13:33:29;11.37;;;8.33;;
1346;SDS011;667;48.796;9.480;2023-06-22T13:35:55;9.97;;;8.60;;
1346;SDS011;667;48.796;9.480;2023-06-22T13:38:20;9.67;;;8.67;;
1346;SDS011;667;48.796;9.480;2023-06-22T13:40:47;11.60;;;8.53;;
1346;SDS011;667;48.796;9.480;2023-06-22T13:43:16;9.53;;;8.57;;
1346;SDS011;667;48.796;9.480;2023-06-22T13:45:42;13.00;;;8.53;;
1346;SDS011;667;48.796;9.480;2023-06-22T13:48:08;14.93;;;8.10;;
1346;SDS011;667;48.796;9.480;2023-06-22T13:50:34;11.27;;;8.63;;
1346;SDS011;667;48.796;9.480;2023-06-22T13:52:59;12.00;;;8.60;;
1346;SDS011;667;48.796;9.480;2023-06-22T13:55:25;11.53;;;8.90;;
1346;SDS011;667;48.796;9.480;2023-06-22T13:57:51;9.60;;;8.37;;
1346;SDS011;667;48.796;9.480;2023-06-22T14:00:17;12.30;;;8.43;;
1346;SDS011;667;48.796;9.480;2023-06-22T14:02:43;11.27;;;8.30;;
1346;SDS011;667;48.796;9.480;2023-06-22T14:05:09;11.90;;;8.20;;
1346;SDS011;667;48.796;9.480;2023-06-22T14:07:36;9.13;;;8.23;;
1346;SDS011;667;48.796;9.480;2023-06-22T14:10:02;11.87;;;9.17;;
1346;SDS011;667;48.796;9.480;2023-06-22T14:12:28;12.23;;;7.83;;
1346;SDS011;667;48.796;9.480;2023-06-22T14:14:54;17.27;;;8.80;;
1346;SDS011;667;48.796;9.480;2023-06-22T14:17:19;15.80;;;7.67;;
1346;SDS011;667;48.796;9.480;2023-06-22T14:19:49;11.33;;;7.70;;
1346;SDS011;667;48.796;9.480;2023-06-22T14:22:17;10.57;;;7.80;;
1346;SDS011;667;48.796;9.480;2023-06-22T14:24:42;10.37;;;7.90;;
1346;SDS011;667;48.796;9.480;2023-06-22T14:27:08;12.60;;;8.00;;
1346;SDS011;667;48.796;9.480;2023-06-22T14:29:34;9.20;;;7.87;;
1346;SDS011;667;48.796;9.480;2023-06-22T14:32:00;11.13;;;8.40;;
1346;SDS011;667;48.796;9.480;2023-06-22T14:34:26;13.73;;;8.20;;
1346;SDS011;667;48.796;9.480;2023-06-22T14:36:51;10.10;;;7.73;;
1346;SDS011;667;48.796;9.480;2023-06-22T14:39:17;11.73;;;6.90;;
1346;SDS011;667;48.796;9.480;2023-06-22T14:41:42;15.23;;;6.93;;
1346;SDS011;667;48.796;9.480;2023-06-22T14:44:08;11.43;;;6.30;;
1346;SDS011;667;48.796;9.480;2023-06-22T14:46:33;13.30;;;7.40;;
1346;SDS011;667;48.796;9.480;2023-06-22T14:49:00;12.63;;;7.40;;
1346;SDS011;667;48.796;9.480;2023-06-22T14:51:25;11.23;;;7.47;;
1346;SDS011;667;48.796;9.480;2023-06-22T14:53:51;11.30;;;7.70;;
1346;SDS011;667;48.796;9.480;2023-06-22T14:56:17;11.87;;;7.17;;
1346;SDS011;667;48.796;9.480;2023-06-22T14:58:43;9.80;;;7.30;;
1346;SDS011;667;48.796;9.480;2023-06-22T15:01:12;10.60;;;7.83;;
1346;SDS011;667;48.796;9.480;2023-06-22T15:03:37;9.70;;;7.10;;
1346;SDS011;667;48.796;9.480;2023-06-22T15:06:03;7.70;;;6.63;;
1346;SDS011;667;48.796;9.480;2023-06-22T15:08:29;10.53;;;7.03;;
1346;SDS011;667;48.796;9.480;2023-06-22T15:10:54;9.90;;;7.50;;
1346;SDS011;667;48.796;9.480;2023-06-22T15:13:23;12.60;;;7.10;;
1346;SDS011;667;48.796;9.480;2023-06-22T15:15:49;11.60;;;6.93;;
1346;SDS011;667;48.796;9.480;2023-06-22T15:18:15;12.60;;;7.07;;
1346;SDS011;667;48.796;9.480;2023-06-22T15:20:41;10.97;;;7.63;;
1346;SDS011;667;48.796;9.480;2023-06-22T15:23:09;10.93;;;7.10;;
1346;SDS011;667;48.796;9.480;2023-06-22T15:25:35;13.30;;;6.80;;